sensor_id;sensor_type;location;lat;lon;timestamp;P1;durP1;ratioP1;P2;durP2;ratioP2
17052;SDS011;8643;48.824;11.422;2023-03-01T00:01:53;25.83;;;12.33;;
17052;SDS011;8643;48.824;11.422;2023-03-01T00:04:22;24.17;;;11.93;;
17052;SDS011;8643;48.824;11.422;2023-03-01T00:06:50;24.53;;;12.03;;
17052;SDS011;8643;48.824;11.422;2023-03-01T00:09:18;28.77;;;12.30;;
17052;SDS011;8643;48.824;11.422;2023-03-01T00:11:47;27.70;;;12.83;;
17052;SDS011;8643;48.824;11.422;2023-03-01T00:14:16;26.17;;;12.00;;
17052;SDS011;8643;48.824;11.422;2023-03-01T00:16:45;25.63;;;12.17;;
17052;SDS011;8643;48.824;11.422;2023-03-01T00:19:16;23.30;;;11.87;;
17052;SDS011;8643;48.824;11.422;2023-03-01T00:21:48;25.20;;;12.03;;
17052;SDS011;8643;48.824;11.422;2023-03-01T00:24:16;25.83;;;12.30;;
17052;SDS011;8643;48.824;11.422;2023-03-01T00:26:45;26.80;;;11.47;;
17052;SDS011;8643;48.824;11.422;2023-03-01T00:29:14;24.50;;;12.50;;
17052;SDS011;8643;48.824;11.422;2023-03-01T00:31:42;24.77;;;11.47;;
17052;SDS011;8643;48.824;11.422;2023-03-01T00:34:10;26.20;;;12.00;;
17052;SDS011;8643;48.824;11.422;2023-03-01T00:36:40;25.27;;;12.10;;
17052;SDS011;8643;48.824;11.422;2023-03-01T00:39:11;25.27;;;11.80;;
17052;SDS011;8643;48.824;11.422;2023-03-01T00:41:40;29.07;;;12.07;;
17052;SDS011;8643;48.824;11.422;2023-03-01T00:44:11;27.70;;;12.63;;
17052;SDS011;8643;48.824;11.422;2023-03-01T00:46:39;29.13;;;11.93;;
17052;SDS011;8643;48.824;11.422;2023-03-01T00:49:07;26.40;;;12.87;;
17052;SDS011;8643;48.824;11.422;2023-03-01T00:51:36;25.67;;;11.80;;
17052;SDS011;8643;48.824;11.422;2023-03-01T00:54:07;27.80;;;12.07;;
17052;SDS011;8643;48.824;11.422;2023-03-01T00:56:36;24.63;;;11.40;;
17052;SDS011;8643;48.824;11.422;2023-03-01T00:59:05;25.10;;;11.40;;
17052;SDS011;8643;48.824;11.422;2023-03-01T01:01:33;28.73;;;12.00;;
17052;SDS011;8643;48.824;11.422;2023-03-01T01:04:02;25.07;;;12.20;;
17052;SDS011;8643;48.824;11.422;2023-03-01T01:06:39;28.40;;;12.53;;
17052;SDS011;8643;48.824;11.422;2023-03-01T01:09:12;27.37;;;12.00;;
17052;SDS011;8643;48.824;11.422;2023-03-01T01:11:44;26.00;;;11.90;;
17052;SDS011;8643;48.824;11.422;2023-03-01T01:14:16;25.40;;;11.50;;
17052;SDS011;8643;48.824;11.422;2023-03-01T01:16:45;27.10;;;11.47;;
17052;SDS011;8643;48.824;11.422;2023-03-01T01:19:14;29.57;;;12.70;;
17052;SDS011;8643;48.824;11.422;2023-03-01T01:21:43;29.93;;;12.67;;
17052;SDS011;8643;48.824;11.422;2023-03-01T01:24:13;28.47;;;12.83;;
17052;SDS011;8643;48.824;11.422;2023-03-01T01:26:42;29.70;;;12.67;;
17052;SDS011;8643;48.824;11.422;2023-03-01T01:29:11;26.77;;;12.47;;
17052;SDS011;8643;48.824;11.422;2023-03-01T01:31:41;31.27;;;12.77;;
17052;SDS011;8643;48.824;11.422;2023-03-01T01:34:12;25.33;;;12.27;;
17052;SDS011;8643;48.824;11.422;2023-03-01T01:36:43;26.80;;;11.73;;
17052;SDS011;8643;48.824;11.422;2023-03-01T01:39:16;26.67;;;12.37;;
17052;SDS011;8643;48.824;11.422;2023-03-01T01:41:44;27.27;;;12.43;;
17052;SDS011;8643;48.824;11.422;2023-03-01T01:44:14;29.17;;;12.23;;
17052;SDS011;8643;48.824;11.422;2023-03-01T01:46:46;28.53;;;12.10;;
17052;SDS011;8643;48.824;11.422;2023-03-01T01:49:24;24.07;;;11.83;;
17052;SDS011;8643;48.824;11.422;2023-03-01T01:52:02;28.23;;;11.87;;
17052;SDS011;8643;48.824;11.422;2023-03-01T01:54:40;29.17;;;12.37;;
17052;SDS011;8643;48.824;11.422;2023-03-01T01:57:16;24.67;;;12.03;;
17052;SDS011;8643;48.824;11.422;2023-03-01T01:59:51;31.50;;;13.00;;
17052;SDS011;8643;48.824;11.422;2023-03-01T02:02:25;26.70;;;12.53;;
17052;SDS011;8643;48.824;11.422;2023-03-01T02:04:56;29.10;;;13.50;;
17052;SDS011;8643;48.824;11.422;2023-03-01T02:07:42;27.17;;;12.10;;
17052;SDS011;8643;48.824;11.422;2023-03-01T02:10:14;27.93;;;12.90;;
17052;SDS011;8643;48.824;11.422;2023-03-01T02:12:43;26.87;;;13.23;;
17052;SDS011;8643;48.824;11.422;2023-03-01T02:15:12;28.17;;;13.20;;
17052;SDS011;8643;48.824;11.422;2023-03-01T02:17:41;25.70;;;11.67;;
17052;SDS011;8643;48.824;11.422;2023-03-01T02:20:12;29.50;;;12.73;;
17052;SDS011;8643;48.824;11.422;2023-03-01T02:22:51;31.63;;;13.20;;
17052;SDS011;8643;48.824;11.422;2023-03-01T02:25:28;31.13;;;12.83;;
17052;SDS011;8643;48.824;11.422;2023-03-01T02:28:08;29.90;;;13.17;;
17052;SDS011;8643;48.824;11.422;2023-03-01T02:30:50;28.63;;;12.77;;
17052;SDS011;8643;48.824;11.422;2023-03-01T02:33:38;30.17;;;12.20;;
17052;SDS011;8643;48.824;11.422;2023-03-01T02:36:10;29.03;;;13.17;;
17052;SDS011;8643;48.824;11.422;2023-03-01T02:38:45;28.13;;;13.17;;
17052;SDS011;8643;48.824;11.422;2023-03-01T02:41:17;29.73;;;12.70;;
17052;SDS011;8643;48.824;11.422;2023-03-01T02:43:50;27.43;;;12.23;;
17052;SDS011;8643;48.824;11.422;2023-03-01T02:46:19;32.27;;;12.87;;
17052;SDS011;8643;48.824;11.422;2023-03-01T02:48:51;29.13;;;12.47;;
17052;SDS011;8643;48.824;11.422;2023-03-01T02:51:27;29.73;;;13.27;;
17052;SDS011;8643;48.824;11.422;2023-03-01T02:54:12;26.13;;;11.97;;
17052;SDS011;8643;48.824;11.422;2023-03-01T02:56:50;25.43;;;11.20;;
17052;SDS011;8643;48.824;11.422;2023-03-01T02:59:22;32.03;;;12.47;;
17052;SDS011;8643;48.824;11.422;2023-03-01T03:01:57;26.63;;;11.90;;
17052;SDS011;8643;48.824;11.422;2023-03-01T03:04:28;31.23;;;12.53;;
17052;SDS011;8643;48.824;11.422;2023-03-01T03:07:00;25.93;;;12.03;;
17052;SDS011;8643;48.824;11.422;2023-03-01T03:09:29;30.07;;;12.87;;
17052;SDS011;8643;48.824;11.422;2023-03-01T03:11:57;32.60;;;12.50;;
17052;SDS011;8643;48.824;11.422;2023-03-01T03:14:27;32.23;;;12.90;;
17052;SDS011;8643;48.824;11.422;2023-03-01T03:16:55;27.33;;;11.97;;
17052;SDS011;8643;48.824;11.422;2023-03-01T03:19:24;30.93;;;13.23;;
17052;SDS011;8643;48.824;11.422;2023-03-01T03:21:52;30.37;;;12.40;;
17052;SDS011;8643;48.824;11.422;2023-03-01T03:24:21;30.87;;;12.23;;
17052;SDS011;8643;48.824;11.422;2023-03-01T03:26:49;27.87;;;12.10;;
17052;SDS011;8643;48.824;11.422;2023-03-01T03:29:18;27.80;;;11.93;;
17052;SDS011;8643;48.824;11.422;2023-03-01T03:31:48;26.93;;;12.30;;
17052;SDS011;8643;48.824;11.422;2023-03-01T03:34:17;28.97;;;12.63;;
17052;SDS011;8643;48.824;11.422;2023-03-01T03:36:45;31.87;;;13.30;;
17052;SDS011;8643;48.824;11.422;2023-03-01T03:39:14;27.40;;;13.30;;
17052;SDS011;8643;48.824;11.422;2023-03-01T03:41:45;27.83;;;13.10;;
17052;SDS011;8643;48.824;11.422;2023-03-01T03:44:14;26.87;;;12.23;;
17052;SDS011;8643;48.824;11.422;2023-03-01T03:46:42;29.70;;;13.60;;
17052;SDS011;8643;48.824;11.422;2023-03-01T03:49:12;30.13;;;12.43;;
17052;SDS011;8643;48.824;11.422;2023-03-01T03:51:40;30.00;;;12.13;;
17052;SDS011;8643;48.824;11.422;2023-03-01T03:54:09;28.10;;;12.60;;
17052;SDS011;8643;48.824;11.422;2023-03-01T03:56:37;34.33;;;13.10;;
17052;SDS011;8643;48.824;11.422;2023-03-01T03:59:06;29.70;;;12.40;;
17052;SDS011;8643;48.824;11.422;2023-03-01T04:01:39;33.53;;;13.13;;
17052;SDS011;8643;48.824;11.422;2023-03-01T04:04:08;30.63;;;12.27;;
17052;SDS011;8643;48.824;11.422;2023-03-01T04:06:38;31.40;;;12.97;;
17052;SDS011;8643;48.824;11.422;2023-03-01T04:09:07;29.07;;;12.97;;
17052;SDS011;8643;48.824;11.422;2023-03-01T04:11:36;31.63;;;12.23;;
17052;SDS011;8643;48.824;11.422;2023-03-01T04:14:05;34.00;;;13.07;;
17052;SDS011;8643;48.824;11.422;2023-03-01T04:16:33;33.17;;;12.70;;
17052;SDS011;8643;48.824;11.422;2023-03-01T04:19:02;28.70;;;11.97;;
17052;SDS011;8643;48.824;11.422;2023-03-01T04:21:32;30.00;;;12.50;;
17052;SDS011;8643;48.824;11.422;2023-03-01T04:24:03;29.87;;;12.27;;
17052;SDS011;8643;48.824;11.422;2023-03-01T04:26:33;30.97;;;12.57;;
17052;SDS011;8643;48.824;11.422;2023-03-01T04:29:01;30.60;;;12.27;;
17052;SDS011;8643;48.824;11.422;2023-03-01T04:31:30;31.07;;;12.10;;
17052;SDS011;8643;48.824;11.422;2023-03-01T04:34:00;31.70;;;12.90;;
17052;SDS011;8643;48.824;11.422;2023-03-01T04:36:29;28.60;;;12.40;;
17052;SDS011;8643;48.824;11.422;2023-03-01T04:38:58;31.60;;;12.53;;
17052;SDS011;8643;48.824;11.422;2023-03-01T04:41:33;32.70;;;13.27;;
17052;SDS011;8643;48.824;11.422;2023-03-01T04:44:02;33.30;;;12.47;;
17052;SDS011;8643;48.824;11.422;2023-03-01T04:46:30;31.23;;;12.97;;
17052;SDS011;8643;48.824;11.422;2023-03-01T04:48:59;33.17;;;12.83;;
17052;SDS011;8643;48.824;11.422;2023-03-01T04:51:28;30.67;;;11.97;;
17052;SDS011;8643;48.824;11.422;2023-03-01T04:53:58;30.43;;;12.93;;
17052;SDS011;8643;48.824;11.422;2023-03-01T04:56:27;28.37;;;12.23;;
17052;SDS011;8643;48.824;11.422;2023-03-01T04:58:58;28.77;;;12.83;;
17052;SDS011;8643;48.824;11.422;2023-03-01T05:01:31;34.93;;;13.83;;
17052;SDS011;8643;48.824;11.422;2023-03-01T05:04:01;28.53;;;11.23;;
17052;SDS011;8643;48.824;11.422;2023-03-01T05:06:33;32.00;;;12.77;;
17052;SDS011;8643;48.824;11.422;2023-03-01T05:09:02;31.80;;;11.70;;
17052;SDS011;8643;48.824;11.422;2023-03-01T05:11:31;32.30;;;11.63;;
17052;SDS011;8643;48.824;11.422;2023-03-01T05:14:03;32.13;;;12.93;;
17052;SDS011;8643;48.824;11.422;2023-03-01T05:16:34;32.43;;;12.63;;
17052;SDS011;8643;48.824;11.422;2023-03-01T05:19:03;30.03;;;12.67;;
17052;SDS011;8643;48.824;11.422;2023-03-01T05:21:38;29.53;;;11.90;;
17052;SDS011;8643;48.824;11.422;2023-03-01T05:24:27;31.13;;;11.60;;
17052;SDS011;8643;48.824;11.422;2023-03-01T05:26:56;31.60;;;11.33;;
17052;SDS011;8643;48.824;11.422;2023-03-01T05:29:27;32.67;;;12.50;;
17052;SDS011;8643;48.824;11.422;2023-03-01T05:32:01;27.90;;;12.33;;
17052;SDS011;8643;48.824;11.422;2023-03-01T05:34:31;31.60;;;11.73;;
17052;SDS011;8643;48.824;11.422;2023-03-01T05:37:02;30.47;;;12.97;;
17052;SDS011;8643;48.824;11.422;2023-03-01T05:39:31;31.40;;;11.80;;
17052;SDS011;8643;48.824;11.422;2023-03-01T05:42:00;30.73;;;12.00;;
17052;SDS011;8643;48.824;11.422;2023-03-01T05:44:36;33.07;;;12.80;;
17052;SDS011;8643;48.824;11.422;2023-03-01T05:47:05;32.00;;;11.47;;
17052;SDS011;8643;48.824;11.422;2023-03-01T05:49:33;32.13;;;12.17;;
17052;SDS011;8643;48.824;11.422;2023-03-01T05:52:05;32.53;;;11.67;;
17052;SDS011;8643;48.824;11.422;2023-03-01T05:54:33;31.07;;;13.23;;
17052;SDS011;8643;48.824;11.422;2023-03-01T05:57:02;35.73;;;12.10;;
17052;SDS011;8643;48.824;11.422;2023-03-01T05:59:30;29.87;;;12.37;;
17052;SDS011;8643;48.824;11.422;2023-03-01T06:02:00;32.57;;;12.10;;
17052;SDS011;8643;48.824;11.422;2023-03-01T06:04:28;32.53;;;12.67;;
17052;SDS011;8643;48.824;11.422;2023-03-01T06:06:56;31.23;;;13.07;;
17052;SDS011;8643;48.824;11.422;2023-03-01T06:09:25;32.37;;;12.23;;
17052;SDS011;8643;48.824;11.422;2023-03-01T06:11:53;29.77;;;12.33;;
17052;SDS011;8643;48.824;11.422;2023-03-01T06:14:21;29.27;;;13.07;;
17052;SDS011;8643;48.824;11.422;2023-03-01T06:16:50;32.50;;;12.17;;
17052;SDS011;8643;48.824;11.422;2023-03-01T06:19:19;31.20;;;11.73;;
17052;SDS011;8643;48.824;11.422;2023-03-01T06:21:48;34.30;;;11.80;;
17052;SDS011;8643;48.824;11.422;2023-03-01T06:24:19;26.37;;;12.23;;
17052;SDS011;8643;48.824;11.422;2023-03-01T06:26:48;29.90;;;12.40;;
17052;SDS011;8643;48.824;11.422;2023-03-01T06:29:16;34.40;;;12.17;;
17052;SDS011;8643;48.824;11.422;2023-03-01T06:31:44;32.67;;;13.13;;
17052;SDS011;8643;48.824;11.422;2023-03-01T06:34:13;32.10;;;12.27;;
17052;SDS011;8643;48.824;11.422;2023-03-01T06:36:43;31.97;;;13.37;;
17052;SDS011;8643;48.824;11.422;2023-03-01T06:39:11;28.37;;;11.97;;
17052;SDS011;8643;48.824;11.422;2023-03-01T06:41:40;31.50;;;12.23;;
17052;SDS011;8643;48.824;11.422;2023-03-01T06:44:08;27.97;;;11.83;;
17052;SDS011;8643;48.824;11.422;2023-03-01T06:46:36;35.07;;;13.73;;
17052;SDS011;8643;48.824;11.422;2023-03-01T06:49:06;29.17;;;11.70;;
17052;SDS011;8643;48.824;11.422;2023-03-01T06:51:35;33.87;;;12.73;;
17052;SDS011;8643;48.824;11.422;2023-03-01T06:54:05;32.20;;;13.30;;
17052;SDS011;8643;48.824;11.422;2023-03-01T06:56:34;31.70;;;12.70;;
17052;SDS011;8643;48.824;11.422;2023-03-01T06:59:02;32.37;;;13.40;;
17052;SDS011;8643;48.824;11.422;2023-03-01T07:01:31;30.07;;;12.43;;
17052;SDS011;8643;48.824;11.422;2023-03-01T07:04:00;30.73;;;12.93;;
17052;SDS011;8643;48.824;11.422;2023-03-01T07:06:29;31.90;;;13.77;;
17052;SDS011;8643;48.824;11.422;2023-03-01T07:08:58;31.77;;;13.67;;
17052;SDS011;8643;48.824;11.422;2023-03-01T07:11:28;30.17;;;12.63;;
17052;SDS011;8643;48.824;11.422;2023-03-01T07:13:56;33.97;;;13.63;;
17052;SDS011;8643;48.824;11.422;2023-03-01T07:16:26;32.80;;;13.50;;
17052;SDS011;8643;48.824;11.422;2023-03-01T07:18:55;29.00;;;13.50;;
17052;SDS011;8643;48.824;11.422;2023-03-01T07:21:25;32.27;;;14.17;;
17052;SDS011;8643;48.824;11.422;2023-03-01T07:23:53;30.40;;;14.33;;
17052;SDS011;8643;48.824;11.422;2023-03-01T07:26:22;32.10;;;13.43;;
17052;SDS011;8643;48.824;11.422;2023-03-01T07:28:53;26.87;;;12.97;;
17052;SDS011;8643;48.824;11.422;2023-03-01T07:31:21;32.60;;;14.80;;
17052;SDS011;8643;48.824;11.422;2023-03-01T07:33:49;30.00;;;13.80;;
17052;SDS011;8643;48.824;11.422;2023-03-01T07:36:18;30.83;;;13.83;;
17052;SDS011;8643;48.824;11.422;2023-03-01T07:38:46;29.53;;;13.60;;
17052;SDS011;8643;48.824;11.422;2023-03-01T07:41:15;27.03;;;13.37;;
17052;SDS011;8643;48.824;11.422;2023-03-01T07:43:44;28.40;;;13.73;;
17052;SDS011;8643;48.824;11.422;2023-03-01T07:46:13;27.57;;;13.33;;
17052;SDS011;8643;48.824;11.422;2023-03-01T07:48:42;27.80;;;13.27;;
17052;SDS011;8643;48.824;11.422;2023-03-01T07:51:14;25.40;;;12.93;;
17052;SDS011;8643;48.824;11.422;2023-03-01T07:53:45;27.77;;;13.17;;
17052;SDS011;8643;48.824;11.422;2023-03-01T07:56:15;26.83;;;13.20;;
17052;SDS011;8643;48.824;11.422;2023-03-01T07:58:45;28.33;;;13.30;;
17052;SDS011;8643;48.824;11.422;2023-03-01T08:01:18;25.70;;;13.00;;
17052;SDS011;8643;48.824;11.422;2023-03-01T08:03:50;27.53;;;13.57;;
17052;SDS011;8643;48.824;11.422;2023-03-01T08:06:19;28.27;;;13.37;;
17052;SDS011;8643;48.824;11.422;2023-03-01T08:08:47;30.93;;;13.50;;
17052;SDS011;8643;48.824;11.422;2023-03-01T08:11:16;27.63;;;13.50;;
17052;SDS011;8643;48.824;11.422;2023-03-01T08:13:46;28.67;;;14.27;;
17052;SDS011;8643;48.824;11.422;2023-03-01T08:16:20;24.47;;;13.07;;
17052;SDS011;8643;48.824;11.422;2023-03-01T08:18:48;24.43;;;12.73;;
17052;SDS011;8643;48.824;11.422;2023-03-01T08:21:17;28.27;;;14.30;;
17052;SDS011;8643;48.824;11.422;2023-03-01T08:23:46;28.50;;;14.53;;
17052;SDS011;8643;48.824;11.422;2023-03-01T08:26:18;26.60;;;13.90;;
17052;SDS011;8643;48.824;11.422;2023-03-01T08:28:49;25.33;;;13.10;;
17052;SDS011;8643;48.824;11.422;2023-03-01T08:31:18;28.20;;;14.57;;
17052;SDS011;8643;48.824;11.422;2023-03-01T08:33:51;23.03;;;13.13;;
17052;SDS011;8643;48.824;11.422;2023-03-01T08:36:22;25.80;;;13.70;;
17052;SDS011;8643;48.824;11.422;2023-03-01T08:38:52;27.53;;;14.07;;
17052;SDS011;8643;48.824;11.422;2023-03-01T08:41:21;27.20;;;13.80;;
17052;SDS011;8643;48.824;11.422;2023-03-01T08:43:50;26.80;;;14.33;;
17052;SDS011;8643;48.824;11.422;2023-03-01T08:46:20;24.93;;;14.00;;
17052;SDS011;8643;48.824;11.422;2023-03-01T08:48:48;23.37;;;13.73;;
17052;SDS011;8643;48.824;11.422;2023-03-01T08:51:17;30.07;;;14.10;;
17052;SDS011;8643;48.824;11.422;2023-03-01T08:53:48;24.43;;;13.40;;
17052;SDS011;8643;48.824;11.422;2023-03-01T08:56:17;24.07;;;12.67;;
17052;SDS011;8643;48.824;11.422;2023-03-01T08:58:47;24.17;;;13.07;;
17052;SDS011;8643;48.824;11.422;2023-03-01T09:01:17;21.30;;;12.30;;
17052;SDS011;8643;48.824;11.422;2023-03-01T09:03:48;23.00;;;12.57;;
17052;SDS011;8643;48.824;11.422;2023-03-01T09:06:16;22.53;;;12.40;;
17052;SDS011;8643;48.824;11.422;2023-03-01T09:08:46;24.00;;;12.47;;
17052;SDS011;8643;48.824;11.422;2023-03-01T09:11:17;19.77;;;11.70;;
17052;SDS011;8643;48.824;11.422;2023-03-01T09:13:48;20.87;;;12.07;;
17052;SDS011;8643;48.824;11.422;2023-03-01T09:16:17;20.60;;;11.10;;
17052;SDS011;8643;48.824;11.422;2023-03-01T09:18:50;20.40;;;11.37;;
17052;SDS011;8643;48.824;11.422;2023-03-01T09:21:21;21.03;;;11.40;;
17052;SDS011;8643;48.824;11.422;2023-03-01T09:24:05;18.03;;;11.13;;
17052;SDS011;8643;48.824;11.422;2023-03-01T09:26:39;18.67;;;11.23;;
17052;SDS011;8643;48.824;11.422;2023-03-01T09:29:07;19.17;;;10.53;;
17052;SDS011;8643;48.824;11.422;2023-03-01T09:31:36;19.17;;;11.20;;
17052;SDS011;8643;48.824;11.422;2023-03-01T09:34:07;19.90;;;10.50;;
17052;SDS011;8643;48.824;11.422;2023-03-01T09:36:37;18.83;;;11.03;;
17052;SDS011;8643;48.824;11.422;2023-03-01T09:39:05;20.27;;;11.37;;
17052;SDS011;8643;48.824;11.422;2023-03-01T09:41:37;27.20;;;11.80;;
17052;SDS011;8643;48.824;11.422;2023-03-01T09:44:21;22.37;;;11.83;;
17052;SDS011;8643;48.824;11.422;2023-03-01T09:46:59;19.60;;;11.17;;
17052;SDS011;8643;48.824;11.422;2023-03-01T09:49:30;22.67;;;11.57;;
17052;SDS011;8643;48.824;11.422;2023-03-01T09:52:03;21.43;;;11.83;;
17052;SDS011;8643;48.824;11.422;2023-03-01T09:54:47;22.03;;;11.97;;
17052;SDS011;8643;48.824;11.422;2023-03-01T09:57:26;18.47;;;11.30;;
17052;SDS011;8643;48.824;11.422;2023-03-01T10:00:10;22.53;;;12.40;;
17052;SDS011;8643;48.824;11.422;2023-03-01T10:02:56;19.47;;;11.73;;
17052;SDS011;8643;48.824;11.422;2023-03-01T10:05:41;19.00;;;11.27;;
17052;SDS011;8643;48.824;11.422;2023-03-01T10:11:18;21.33;;;12.03;;
17052;SDS011;8643;48.824;11.422;2023-03-01T10:14:01;21.43;;;12.27;;
17052;SDS011;8643;48.824;11.422;2023-03-01T10:16:38;21.23;;;12.20;;
17052;SDS011;8643;48.824;11.422;2023-03-01T10:19:17;20.37;;;12.10;;
17052;SDS011;8643;48.824;11.422;2023-03-01T10:21:56;24.03;;;12.83;;
17052;SDS011;8643;48.824;11.422;2023-03-01T10:24:31;21.97;;;11.97;;
17052;SDS011;8643;48.824;11.422;2023-03-01T10:27:04;22.67;;;12.53;;
17052;SDS011;8643;48.824;11.422;2023-03-01T10:29:41;19.93;;;11.57;;
17052;SDS011;8643;48.824;11.422;2023-03-01T10:32:17;21.27;;;11.73;;
17052;SDS011;8643;48.824;11.422;2023-03-01T10:34:50;22.43;;;12.50;;
17052;SDS011;8643;48.824;11.422;2023-03-01T10:37:21;22.23;;;12.30;;
17052;SDS011;8643;48.824;11.422;2023-03-01T10:39:55;22.93;;;12.27;;
17052;SDS011;8643;48.824;11.422;2023-03-01T10:42:35;22.57;;;12.57;;
17052;SDS011;8643;48.824;11.422;2023-03-01T10:45:19;20.23;;;12.20;;
17052;SDS011;8643;48.824;11.422;2023-03-01T10:48:11;18.97;;;11.43;;
17052;SDS011;8643;48.824;11.422;2023-03-01T10:50:43;19.40;;;11.00;;
17052;SDS011;8643;48.824;11.422;2023-03-01T10:53:21;20.23;;;12.13;;
17052;SDS011;8643;48.824;11.422;2023-03-01T10:55:59;19.47;;;11.43;;
17052;SDS011;8643;48.824;11.422;2023-03-01T10:58:31;21.97;;;12.30;;
17052;SDS011;8643;48.824;11.422;2023-03-01T11:01:02;18.80;;;11.60;;
17052;SDS011;8643;48.824;11.422;2023-03-01T11:03:33;20.50;;;11.30;;
17052;SDS011;8643;48.824;11.422;2023-03-01T11:06:05;20.42;;;11.82;;
17052;SDS011;8643;48.824;11.422;2023-03-01T11:08:50;21.13;;;12.23;;
17052;SDS011;8643;48.824;11.422;2023-03-01T11:11:29;20.48;;;11.55;;
17052;SDS011;8643;48.824;11.422;2023-03-01T11:14:01;19.45;;;11.75;;
17052;SDS011;8643;48.824;11.422;2023-03-01T11:16:57;22.33;;;12.40;;
17052;SDS011;8643;48.824;11.422;2023-03-01T11:19:29;20.77;;;12.27;;
17052;SDS011;8643;48.824;11.422;2023-03-01T11:22:00;19.83;;;11.82;;
17052;SDS011;8643;48.824;11.422;2023-03-01T11:24:36;18.92;;;11.38;;
17052;SDS011;8643;48.824;11.422;2023-03-01T11:27:14;22.20;;;11.30;;
17052;SDS011;8643;48.824;11.422;2023-03-01T11:29:51;18.23;;;11.27;;
17052;SDS011;8643;48.824;11.422;2023-03-01T11:32:25;21.58;;;11.02;;
17052;SDS011;8643;48.824;11.422;2023-03-01T11:35:01;19.05;;;11.73;;
17052;SDS011;8643;48.824;11.422;2023-03-01T11:37:44;19.02;;;11.48;;
17052;SDS011;8643;48.824;11.422;2023-03-01T11:40:29;18.48;;;11.13;;
17052;SDS011;8643;48.824;11.422;2023-03-01T11:43:05;20.40;;;11.40;;
17052;SDS011;8643;48.824;11.422;2023-03-01T11:45:59;19.52;;;11.50;;
17052;SDS011;8643;48.824;11.422;2023-03-01T11:49:15;18.27;;;11.70;;
17052;SDS011;8643;48.824;11.422;2023-03-01T11:52:29;18.25;;;10.43;;
17052;SDS011;8643;48.824;11.422;2023-03-01T11:55:12;18.85;;;11.43;;
17052;SDS011;8643;48.824;11.422;2023-03-01T11:58:17;18.55;;;10.98;;
17052;SDS011;8643;48.824;11.422;2023-03-01T12:01:08;18.35;;;10.13;;
17052;SDS011;8643;48.824;11.422;2023-03-01T12:07:19;17.98;;;10.27;;
17052;SDS011;8643;48.824;11.422;2023-03-01T12:10:10;22.40;;;11.00;;
17052;SDS011;8643;48.824;11.422;2023-03-01T12:12:58;17.48;;;10.45;;
17052;SDS011;8643;48.824;11.422;2023-03-01T12:16:04;19.77;;;10.75;;
17052;SDS011;8643;48.824;11.422;2023-03-01T12:19:15;15.85;;;9.68;;
17052;SDS011;8643;48.824;11.422;2023-03-01T12:22:11;18.88;;;11.00;;
17052;SDS011;8643;48.824;11.422;2023-03-01T12:25:10;17.75;;;10.50;;
17052;SDS011;8643;48.824;11.422;2023-03-01T12:31:03;13.98;;;9.43;;
17052;SDS011;8643;48.824;11.422;2023-03-01T12:34:07;15.90;;;9.45;;
17052;SDS011;8643;48.824;11.422;2023-03-01T12:37:05;15.98;;;10.30;;
17052;SDS011;8643;48.824;11.422;2023-03-01T12:39:52;15.43;;;9.75;;
17052;SDS011;8643;48.824;11.422;2023-03-01T12:42:45;16.20;;;10.77;;
17052;SDS011;8643;48.824;11.422;2023-03-01T12:45:34;19.23;;;10.52;;
17052;SDS011;8643;48.824;11.422;2023-03-01T12:48:31;16.15;;;10.15;;
17052;SDS011;8643;48.824;11.422;2023-03-01T12:51:14;16.77;;;10.13;;
17052;SDS011;8643;48.824;11.422;2023-03-01T12:53:48;15.93;;;10.63;;
17052;SDS011;8643;48.824;11.422;2023-03-01T12:56:21;16.80;;;10.35;;
17052;SDS011;8643;48.824;11.422;2023-03-01T12:58:55;16.98;;;10.23;;
17052;SDS011;8643;48.824;11.422;2023-03-01T13:01:41;16.48;;;9.70;;
17052;SDS011;8643;48.824;11.422;2023-03-01T13:04:28;18.00;;;10.15;;
17052;SDS011;8643;48.824;11.422;2023-03-01T13:07:20;16.23;;;9.80;;
17052;SDS011;8643;48.824;11.422;2023-03-01T13:10:00;16.17;;;9.98;;
17052;SDS011;8643;48.824;11.422;2023-03-01T13:13:01;16.70;;;10.32;;
17052;SDS011;8643;48.824;11.422;2023-03-01T13:15:40;19.50;;;10.57;;
17052;SDS011;8643;48.824;11.422;2023-03-01T13:21:03;16.00;;;9.93;;
17052;SDS011;8643;48.824;11.422;2023-03-01T13:23:34;15.35;;;9.25;;
17052;SDS011;8643;48.824;11.422;2023-03-01T13:26:07;15.68;;;9.15;;
17052;SDS011;8643;48.824;11.422;2023-03-01T13:34:50;15.50;;;10.02;;
17052;SDS011;8643;48.824;11.422;2023-03-01T13:37:24;18.42;;;9.93;;
17052;SDS011;8643;48.824;11.422;2023-03-01T13:39:57;15.40;;;9.60;;
17052;SDS011;8643;48.824;11.422;2023-03-01T13:45:32;16.98;;;10.07;;
17052;SDS011;8643;48.824;11.422;2023-03-01T13:48:11;18.23;;;10.30;;
17052;SDS011;8643;48.824;11.422;2023-03-01T13:50:53;20.13;;;11.25;;
17052;SDS011;8643;48.824;11.422;2023-03-01T13:53:29;17.33;;;9.82;;
17052;SDS011;8643;48.824;11.422;2023-03-01T13:56:06;16.75;;;10.32;;
17052;SDS011;8643;48.824;11.422;2023-03-01T13:58:44;17.05;;;10.50;;
17052;SDS011;8643;48.824;11.422;2023-03-01T14:01:22;17.15;;;10.40;;
17052;SDS011;8643;48.824;11.422;2023-03-01T14:03:56;16.75;;;10.45;;
17052;SDS011;8643;48.824;11.422;2023-03-01T14:06:28;16.25;;;10.02;;
17052;SDS011;8643;48.824;11.422;2023-03-01T14:09:03;16.58;;;10.20;;
17052;SDS011;8643;48.824;11.422;2023-03-01T14:14:55;18.80;;;11.38;;
17052;SDS011;8643;48.824;11.422;2023-03-01T14:20:37;17.80;;;10.80;;
17052;SDS011;8643;48.824;11.422;2023-03-01T14:23:11;19.90;;;10.55;;
17052;SDS011;8643;48.824;11.422;2023-03-01T14:25:46;18.20;;;10.90;;
17052;SDS011;8643;48.824;11.422;2023-03-01T14:28:18;19.27;;;11.00;;
17052;SDS011;8643;48.824;11.422;2023-03-01T14:30:49;18.85;;;11.02;;
17052;SDS011;8643;48.824;11.422;2023-03-01T14:33:24;17.27;;;10.88;;
17052;SDS011;8643;48.824;11.422;2023-03-01T14:35:56;16.40;;;9.82;;
17052;SDS011;8643;48.824;11.422;2023-03-01T14:38:33;16.15;;;10.05;;
17052;SDS011;8643;48.824;11.422;2023-03-01T14:41:05;17.63;;;10.60;;
17052;SDS011;8643;48.824;11.422;2023-03-01T14:43:37;17.23;;;10.60;;
17052;SDS011;8643;48.824;11.422;2023-03-01T14:46:17;21.20;;;10.80;;
17052;SDS011;8643;48.824;11.422;2023-03-01T14:48:49;18.60;;;10.77;;
17052;SDS011;8643;48.824;11.422;2023-03-01T14:51:19;17.25;;;10.50;;
17052;SDS011;8643;48.824;11.422;2023-03-01T14:53:50;17.83;;;10.93;;
17052;SDS011;8643;48.824;11.422;2023-03-01T14:56:20;21.70;;;10.70;;
17052;SDS011;8643;48.824;11.422;2023-03-01T14:58:50;17.83;;;10.15;;
17052;SDS011;8643;48.824;11.422;2023-03-01T15:01:20;17.65;;;10.48;;
17052;SDS011;8643;48.824;11.422;2023-03-01T15:03:49;15.07;;;10.13;;
17052;SDS011;8643;48.824;11.422;2023-03-01T15:06:19;18.92;;;10.32;;
17052;SDS011;8643;48.824;11.422;2023-03-01T15:08:56;16.92;;;10.35;;
17052;SDS011;8643;48.824;11.422;2023-03-01T15:11:27;17.58;;;10.10;;
17052;SDS011;8643;48.824;11.422;2023-03-01T15:13:58;18.58;;;10.18;;
17052;SDS011;8643;48.824;11.422;2023-03-01T15:16:27;16.63;;;10.13;;
17052;SDS011;8643;48.824;11.422;2023-03-01T15:19:00;18.75;;;11.20;;
17052;SDS011;8643;48.824;11.422;2023-03-01T15:21:32;20.02;;;10.63;;
17052;SDS011;8643;48.824;11.422;2023-03-01T15:24:06;17.55;;;9.75;;
17052;SDS011;8643;48.824;11.422;2023-03-01T15:26:50;20.15;;;12.20;;